Arendtsville, Pennsylvania
Current Conditions -  °F | °C
As of 10:53 AM on Thursday 29 Jan 2015 (Local Time) from KRYT Reporting Station
Broken Clouds Broken Clouds  
Wind Chill: -2°   Ceiling: 11000
Heat Index: -2°   Visibility: 10mi
Dew Point: -17°   Wind: 0mph
Humidity: 33%   Direction: NA
Pressure: 30.18"   Gusts: NA
Location:  39.92°N, 77.3°W
Report Text: KRYT 291553Z AUTO 00000KT 10SM BKN110 M02/M17 A3018 RMK AO2 SLP240 T10221167 $
Loading
Personal Weather Stations






























Interactive Weather Map New forecast layout! Learn more

10-Day Weather Forecast

Advertisements
Track Severe Weather on mobile